createdAt,value
2024-01-05T00:01:24.420Z,8.77
2024-01-05T00:03:26.143Z,7.32
2024-01-05T00:05:28.157Z,6.38
2024-01-05T00:09:32.088Z,8.23
2024-01-05T00:11:33.836Z,7.93
2024-01-05T00:13:35.421Z,6.75
2024-01-05T00:15:37.025Z,7.57
2024-01-05T00:17:38.869Z,5.65
2024-01-05T00:19:41.659Z,5.32
2024-01-05T00:21:43.471Z,6.13
2024-01-05T00:23:44.999Z,5.78
2024-01-05T00:25:46.638Z,4.45
2024-01-05T00:27:49.047Z,5.75
2024-01-05T00:29:50.944Z,5.43
2024-01-05T00:31:52.594Z,7.30
2024-01-05T00:33:54.419Z,4.78
2024-01-05T00:35:57.043Z,5.70
2024-01-05T00:37:58.910Z,5.38
2024-01-05T00:40:03.799Z,6.72
2024-01-05T00:42:06.686Z,6.07
2024-01-05T00:44:08.290Z,5.60
2024-01-05T00:46:10.500Z,5.95
2024-01-05T00:50:14.164Z,5.50
2024-01-05T00:52:15.788Z,6.90
2024-01-05T00:54:17.356Z,4.55
2024-01-05T00:56:18.928Z,6.15
2024-01-05T00:58:20.460Z,5.75
2024-01-05T01:00:22.287Z,5.32
2024-01-05T01:02:23.895Z,4.65
2024-01-05T01:04:25.699Z,6.28
2024-01-05T01:06:27.391Z,5.95
2024-01-05T01:08:28.967Z,5.03
2024-01-05T01:10:30.551Z,6.03
2024-01-05T01:12:32.286Z,4.65
2024-01-05T01:14:34.197Z,5.20
2024-01-05T01:16:35.790Z,5.25
2024-01-05T01:18:37.493Z,6.20
2024-01-05T01:20:39.767Z,4.88
2024-01-05T01:24:42.726Z,5.50
2024-01-05T01:26:44.616Z,5.05
2024-01-05T01:28:46.425Z,4.32
2024-01-05T01:30:48.314Z,4.22
2024-01-05T01:32:53.846Z,4.88
2024-01-05T01:34:55.465Z,4.43
2024-01-05T01:36:57.322Z,5.78
2024-01-05T01:38:59.031Z,3.92
2024-01-05T01:41:00.965Z,5.63
2024-01-05T01:43:02.901Z,4.03
2024-01-05T01:45:05.155Z,4.22
2024-01-05T01:49:08.940Z,4.22
2024-01-05T01:53:19.623Z,2.83
2024-01-05T01:55:21.398Z,3.85
2024-01-05T01:57:23.812Z,3.17
2024-01-05T01:59:25.940Z,4.30
2024-01-05T02:03:30.125Z,2.42
2024-01-05T02:07:33.491Z,3.50
2024-01-05T02:09:35.933Z,2.92
2024-01-05T02:11:38.325Z,4.15
2024-01-05T02:13:40.540Z,3.38
2024-01-05T02:17:43.669Z,2.08
2024-01-05T02:19:46.338Z,4.28
2024-01-05T02:21:53.668Z,2.30
2024-01-05T02:23:55.495Z,2.97
2024-01-05T02:30:01.000Z,2.95
2024-01-05T02:32:02.903Z,2.00
2024-01-05T02:38:17.853Z,1.90
2024-01-05T02:40:19.588Z,1.70
2024-01-05T02:42:21.351Z,2.00
2024-01-05T02:44:23.314Z,2.85
2024-01-05T02:46:25.128Z,1.13
2024-01-05T02:48:27.199Z,2.20
2024-01-05T02:50:29.003Z,3.10
2024-01-05T02:52:30.580Z,1.90
2024-01-05T02:54:32.592Z,2.53
2024-01-05T02:56:35.288Z,2.30
2024-01-05T02:58:37.215Z,1.15
2024-01-05T03:00:39.383Z,1.50
2024-01-05T03:04:47.382Z,1.52
2024-01-05T03:06:49.314Z,1.63
2024-01-05T03:08:51.206Z,2.22
2024-01-05T03:10:52.964Z,1.92
2024-01-05T03:12:54.864Z,2.08
2024-01-05T03:14:59.487Z,2.80
2024-01-05T03:17:02.541Z,1.42
2024-01-05T03:19:04.899Z,1.90
2024-01-05T03:23:10.430Z,1.77
2024-01-05T03:25:12.317Z,3.08
2024-01-05T03:27:16.045Z,1.33
2024-01-05T03:29:18.227Z,2.50
2024-01-05T03:31:24.037Z,2.95
2024-01-05T03:33:26.246Z,1.63
2024-01-05T03:37:29.839Z,2.07
2024-01-05T03:39:31.993Z,1.80
2024-01-05T03:41:34.380Z,2.17
2024-01-05T03:43:36.287Z,1.52
2024-01-05T03:45:38.654Z,0.82
2024-01-05T03:47:40.591Z,1.55
2024-01-05T03:51:44.868Z,1.95
2024-01-05T03:53:46.752Z,1.83
2024-01-05T03:55:48.771Z,2.72
2024-01-05T03:57:51.131Z,2.08
2024-01-05T03:59:53.109Z,1.75
2024-01-05T04:01:55.156Z,1.23
2024-01-05T04:03:58.920Z,2.20
2024-01-05T04:06:00.693Z,1.15
2024-01-05T04:08:03.093Z,0.93
2024-01-05T04:10:05.889Z,1.98
2024-01-05T04:12:10.967Z,1.52
2024-01-05T04:14:13.237Z,3.08
2024-01-05T04:18:17.592Z,1.50
2024-01-05T04:22:21.389Z,2.42
2024-01-05T04:24:23.136Z,2.03
2024-01-05T04:26:25.413Z,2.00
2024-01-05T04:28:27.387Z,1.42
2024-01-05T04:30:29.102Z,1.33
2024-01-05T04:32:34.288Z,1.50
2024-01-05T04:34:36.309Z,2.40
2024-01-05T04:36:40.816Z,0.75
2024-01-05T04:38:43.666Z,1.52
2024-01-05T04:40:45.520Z,2.78
2024-01-05T04:42:47.275Z,1.83
2024-01-05T04:44:50.763Z,1.00
2024-01-05T04:46:52.517Z,2.50
2024-01-05T04:48:54.660Z,2.58
2024-01-05T04:50:56.625Z,1.90
2024-01-05T04:52:58.497Z,3.97
2024-01-05T04:55:02.610Z,2.15
2024-01-05T04:57:07.757Z,2.03
2024-01-05T04:59:09.641Z,2.90
2024-01-05T05:01:11.334Z,2.05
2024-01-05T05:03:15.415Z,1.60
2024-01-05T05:05:17.407Z,1.67
2024-01-05T05:07:19.212Z,1.52
2024-01-05T05:09:21.292Z,2.58
2024-01-05T05:11:26.774Z,2.38
2024-01-05T05:13:28.779Z,1.90
2024-01-05T05:15:30.677Z,2.28
2024-01-05T05:17:32.496Z,2.53
2024-01-05T05:19:35.943Z,2.78
2024-01-05T05:21:38.266Z,1.73
2024-01-05T05:25:44.960Z,2.50
2024-01-05T05:27:46.659Z,2.80
2024-01-05T05:29:48.897Z,2.33
2024-01-05T05:31:50.500Z,1.75
2024-01-05T05:33:52.245Z,1.40
2024-01-05T05:35:54.089Z,1.90
2024-01-05T05:37:56.973Z,1.70
2024-01-05T05:39:58.617Z,1.63
2024-01-05T05:42:00.488Z,4.53
2024-01-05T05:44:02.368Z,2.13
2024-01-05T05:46:04.208Z,1.98
2024-01-05T05:48:06.855Z,1.85
2024-01-05T05:50:08.844Z,3.63
2024-01-05T05:52:10.933Z,3.35
2024-01-05T05:54:12.838Z,2.22
2024-01-05T05:56:14.472Z,2.67
2024-01-05T05:58:16.099Z,2.58
2024-01-05T06:00:18.027Z,2.65
2024-01-05T06:02:19.707Z,1.60
2024-01-05T06:04:21.500Z,2.85
2024-01-05T06:06:24.803Z,2.55
2024-01-05T06:08:26.888Z,1.77
2024-01-05T06:10:28.556Z,2.72
2024-01-05T06:12:30.150Z,2.45
2024-01-05T06:14:34.398Z,2.40
2024-01-05T06:16:36.256Z,2.88
2024-01-05T06:18:39.921Z,2.35
2024-01-05T06:20:41.780Z,2.17
2024-01-05T06:22:43.499Z,3.47
2024-01-05T06:24:45.974Z,2.35
2024-01-05T06:26:47.678Z,1.95
2024-01-05T06:28:49.665Z,2.90
2024-01-05T06:30:51.418Z,2.03
2024-01-05T06:32:53.108Z,3.30
2024-01-05T06:34:54.907Z,2.15
2024-01-05T06:36:56.622Z,1.70
2024-01-05T06:38:58.441Z,2.35
2024-01-05T06:41:00.099Z,2.38
2024-01-05T06:43:02.086Z,2.35
2024-01-05T06:45:04.103Z,2.08
2024-01-05T06:47:05.751Z,2.80
2024-01-05T06:49:07.781Z,2.65
2024-01-05T06:51:09.609Z,3.25
2024-01-05T06:53:11.253Z,2.05
2024-01-05T06:55:13.014Z,1.58
2024-01-05T06:57:14.662Z,2.03
2024-01-05T06:59:17.239Z,2.40
2024-01-05T07:01:19.104Z,1.88
2024-01-05T07:03:20.738Z,3.20
2024-01-05T07:05:22.480Z,2.33
2024-01-05T07:07:24.253Z,2.72
2024-01-05T07:09:26.862Z,1.73
2024-01-05T07:11:28.869Z,1.60
2024-01-05T07:13:30.499Z,2.55
2024-01-05T07:15:32.091Z,2.05
2024-01-05T07:17:33.723Z,3.75
2024-01-05T07:19:35.503Z,3.50
2024-01-05T07:21:45.104Z,2.60
2024-01-05T07:23:47.525Z,3.17
2024-01-05T07:25:49.112Z,3.22
2024-01-05T07:27:50.625Z,2.58
2024-01-05T07:29:52.553Z,2.42
2024-01-05T07:31:54.196Z,2.10
2024-01-05T07:33:55.913Z,3.08
2024-01-05T07:35:57.592Z,4.32
2024-01-05T07:37:59.257Z,1.95
2024-01-05T07:40:01.313Z,3.17
2024-01-05T07:42:04.023Z,1.40
2024-01-05T07:46:07.672Z,2.53
2024-01-05T07:48:09.531Z,2.70
2024-01-05T07:50:11.509Z,1.92
2024-01-05T07:52:13.185Z,2.53
2024-01-05T07:54:14.826Z,3.58
2024-01-05T07:56:20.157Z,2.72
2024-01-05T07:58:21.767Z,3.80
2024-01-05T08:00:23.516Z,1.85
2024-01-05T08:02:25.137Z,2.35
2024-01-05T08:04:26.756Z,2.30
2024-01-05T08:06:28.587Z,2.30
2024-01-05T08:08:30.276Z,2.83
2024-01-05T08:10:32.177Z,3.22
2024-01-05T08:12:33.832Z,3.03
2024-01-05T08:14:35.725Z,2.25
2024-01-05T08:16:37.648Z,2.00
2024-01-05T08:18:40.954Z,2.63
2024-01-05T08:20:42.747Z,2.65
2024-01-05T08:22:44.538Z,1.85
2024-01-05T08:24:46.275Z,3.25
2024-01-05T08:26:47.949Z,2.72
2024-01-05T08:28:49.556Z,3.30
2024-01-05T08:30:52.563Z,2.50
2024-01-05T08:32:56.696Z,3.58
2024-01-05T08:34:58.596Z,3.22
2024-01-05T08:37:00.195Z,3.92
2024-01-05T08:39:01.862Z,2.58
2024-01-05T08:41:03.720Z,2.90
2024-01-05T08:43:05.803Z,2.60
2024-01-05T08:45:08.056Z,2.25
2024-01-05T08:49:11.214Z,3.00
2024-01-05T08:51:13.217Z,3.92
2024-01-05T08:53:14.990Z,2.72
2024-01-05T08:55:17.745Z,3.00
2024-01-05T08:57:19.538Z,2.08
2024-01-05T08:59:21.179Z,2.55
2024-01-05T09:01:23.530Z,3.17
2024-01-05T09:03:25.364Z,2.53
2024-01-05T09:05:27.158Z,1.83
2024-01-05T09:07:28.827Z,2.80
2024-01-05T09:09:30.492Z,5.25
2024-01-05T09:11:32.072Z,3.80
2024-01-05T09:13:36.127Z,6.00
2024-01-05T09:15:39.611Z,11.45
2024-01-05T09:17:41.484Z,20.30
2024-01-05T09:19:43.525Z,21.80
2024-01-05T09:21:45.476Z,14.52
2024-01-05T09:23:47.366Z,24.95
2024-01-05T09:25:48.914Z,19.02
2024-01-05T09:27:50.517Z,19.00
2024-01-05T09:29:52.154Z,20.52
2024-01-05T09:31:53.899Z,13.65
2024-01-05T09:33:55.904Z,16.38
2024-01-05T09:35:57.791Z,11.93
2024-01-05T09:37:59.315Z,10.73
2024-01-05T09:40:01.005Z,12.13
2024-01-05T09:42:03.724Z,10.85
2024-01-05T09:44:06.316Z,13.52
2024-01-05T09:46:08.536Z,7.95
2024-01-05T09:50:14.486Z,12.27
2024-01-05T09:52:19.237Z,10.32
2024-01-05T09:54:20.935Z,8.20
2024-01-05T09:56:23.296Z,4.22
2024-01-05T09:58:26.851Z,7.40
2024-01-05T10:00:32.655Z,6.45
2024-01-05T10:02:43.133Z,6.82
2024-01-05T10:04:45.395Z,7.45
2024-01-05T10:06:47.227Z,7.13
2024-01-05T10:08:55.973Z,11.20
2024-01-05T10:10:58.112Z,12.80
2024-01-05T10:13:06.449Z,10.23
2024-01-05T10:15:09.007Z,17.38
2024-01-05T10:17:12.000Z,25.35
2024-01-05T10:19:16.927Z,8.80
2024-01-05T10:21:19.706Z,6.70
2024-01-05T10:23:21.507Z,6.72
2024-01-05T10:25:23.359Z,6.40
2024-01-05T10:27:28.694Z,7.22
2024-01-05T10:29:33.494Z,9.05
2024-01-05T10:31:35.733Z,8.65
2024-01-05T10:33:52.647Z,10.10
2024-01-05T10:35:54.495Z,13.63
2024-01-05T10:40:06.595Z,9.27
2024-01-05T10:42:28.771Z,5.05
2024-01-05T10:46:35.879Z,7.75
2024-01-05T10:48:38.948Z,7.07
2024-01-05T10:50:44.660Z,4.18
2024-01-05T10:52:46.504Z,6.13
2024-01-05T10:54:49.400Z,6.43
2024-01-05T10:56:55.737Z,9.52
2024-01-05T10:58:57.791Z,8.30
2024-01-05T11:01:01.713Z,7.85
2024-01-05T11:03:24.851Z,7.00
2024-01-05T11:05:29.211Z,9.60
2024-01-05T11:07:34.678Z,7.47
2024-01-05T11:09:51.120Z,7.00
2024-01-05T11:12:21.871Z,4.65
2024-01-05T11:14:23.485Z,6.30
2024-01-05T11:16:43.435Z,4.68
2024-01-05T11:18:56.667Z,5.85
2024-01-05T11:21:26.062Z,11.82
2024-01-05T11:23:28.872Z,7.00
2024-01-05T11:25:30.805Z,10.50
2024-01-05T11:27:35.053Z,6.90
2024-01-05T11:29:46.102Z,6.10
2024-01-05T11:31:47.811Z,7.03
2024-01-05T11:33:50.609Z,6.05
2024-01-05T11:35:52.697Z,6.07
2024-01-05T11:37:54.413Z,6.15
2024-01-05T11:39:56.239Z,5.55
2024-01-05T11:41:58.172Z,4.97
2024-01-05T11:44:00.018Z,6.45
2024-01-05T11:46:01.918Z,4.13
2024-01-05T11:48:03.876Z,6.65
2024-01-05T11:50:34.624Z,4.75
2024-01-05T11:52:36.427Z,4.43
2024-01-05T11:54:38.020Z,6.63
2024-01-05T11:56:39.697Z,11.68
2024-01-05T11:58:42.379Z,8.93
2024-01-05T12:00:46.140Z,8.50
2024-01-05T12:02:47.960Z,7.88
2024-01-05T12:04:49.888Z,6.30
2024-01-05T12:08:56.537Z,5.80
2024-01-05T12:11:07.127Z,10.07
2024-01-05T12:13:09.113Z,10.45
2024-01-05T12:15:10.919Z,9.43
2024-01-05T12:17:15.815Z,9.55
2024-01-05T12:19:22.529Z,6.38
2024-01-05T12:23:32.409Z,6.25
2024-01-05T12:25:36.422Z,7.45
2024-01-05T12:27:41.896Z,5.13
2024-01-05T12:29:44.043Z,6.13
2024-01-05T12:33:50.153Z,5.75
2024-01-05T12:35:53.468Z,7.35
2024-01-05T12:37:55.532Z,6.47
2024-01-05T12:40:13.477Z,6.82
2024-01-05T12:42:15.999Z,7.78
2024-01-05T12:44:17.842Z,7.45
2024-01-05T12:46:22.631Z,8.25
2024-01-05T12:48:30.501Z,9.43
2024-01-05T12:50:32.273Z,8.80
2024-01-05T12:52:38.053Z,13.43
2024-01-05T12:54:44.008Z,11.48
2024-01-05T12:56:46.950Z,12.68
2024-01-05T12:58:48.628Z,9.93
2024-01-05T13:00:52.940Z,12.63
2024-01-05T13:02:54.780Z,11.35
2024-01-05T13:04:56.462Z,9.20
2024-01-05T13:06:58.152Z,12.27
2024-01-05T13:09:00.050Z,11.77
2024-01-05T13:11:04.398Z,14.20
2024-01-05T13:13:07.573Z,9.75
2024-01-05T13:15:10.617Z,10.50
2024-01-05T13:17:12.220Z,7.45
2024-01-05T13:19:16.091Z,10.27
2024-01-05T13:21:17.957Z,8.10
2024-01-05T13:23:19.928Z,7.60
2024-01-05T13:25:21.664Z,9.98
2024-01-05T13:27:23.210Z,8.40
2024-01-05T13:29:24.776Z,9.38
2024-01-05T13:31:26.485Z,7.97
2024-01-05T13:33:28.333Z,9.27
2024-01-05T13:35:29.991Z,12.55
2024-01-05T13:37:32.040Z,12.63
2024-01-05T13:41:38.016Z,18.70
2024-01-05T13:43:39.843Z,36.63
2024-01-05T13:45:41.535Z,92.40
2024-01-05T13:47:43.203Z,100.45
2024-01-05T13:49:44.797Z,76.68
2024-01-05T13:51:46.395Z,53.53
2024-01-05T13:53:48.298Z,50.72
2024-01-05T13:55:50.471Z,36.05
2024-01-05T13:57:52.062Z,32.08
2024-01-05T13:59:53.752Z,26.17
2024-01-05T14:01:55.643Z,19.27
2024-01-05T14:03:57.302Z,21.02
2024-01-05T14:06:04.927Z,13.10
2024-01-05T14:08:06.896Z,12.70
2024-01-05T14:10:08.910Z,28.52
2024-01-05T14:12:11.180Z,16.25
2024-01-05T14:14:12.797Z,10.65
2024-01-05T14:16:14.468Z,9.40
2024-01-05T14:18:16.189Z,11.32
2024-01-05T14:20:18.434Z,11.25
2024-01-05T14:24:25.154Z,8.43
2024-01-05T14:26:27.380Z,12.27
2024-01-05T14:28:28.978Z,16.23
2024-01-05T14:30:30.794Z,13.25
2024-01-05T14:32:32.899Z,12.43
2024-01-05T14:36:38.523Z,12.52
2024-01-05T14:38:40.183Z,11.30
2024-01-05T14:40:41.750Z,9.07
2024-01-05T14:42:43.496Z,9.95
2024-01-05T14:44:45.248Z,18.73
2024-01-05T14:46:46.853Z,9.90
2024-01-05T14:48:48.596Z,11.63
2024-01-05T14:50:50.502Z,9.55
2024-01-05T14:52:59.766Z,11.10
2024-01-05T14:55:10.856Z,12.63
2024-01-05T14:57:12.507Z,8.93
2024-01-05T14:59:14.210Z,10.48
2024-01-05T15:01:16.074Z,8.18
2024-01-05T15:03:18.028Z,11.48
2024-01-05T15:05:19.928Z,10.05
2024-01-05T15:07:21.666Z,7.88
2024-01-05T15:09:23.930Z,8.90
2024-01-05T15:11:25.553Z,9.45
2024-01-05T15:13:27.493Z,8.00
2024-01-05T15:15:29.284Z,8.45
2024-01-05T15:17:32.011Z,8.15
2024-01-05T15:19:36.662Z,9.48
2024-01-05T15:21:38.427Z,8.30
2024-01-05T15:23:42.704Z,10.65
2024-01-05T15:25:44.407Z,10.68
2024-01-05T15:27:46.827Z,9.07
2024-01-05T15:29:48.411Z,6.65
2024-01-05T15:31:53.547Z,7.03
2024-01-05T15:33:57.080Z,7.47
2024-01-05T15:35:59.814Z,7.70
2024-01-05T15:38:01.483Z,7.20
2024-01-05T15:40:03.832Z,7.28
2024-01-05T15:42:06.841Z,9.30
2024-01-05T15:44:08.470Z,4.95
2024-01-05T15:46:11.407Z,9.13
2024-01-05T15:48:19.666Z,9.70
2024-01-05T15:50:21.878Z,7.35
2024-01-05T15:52:23.636Z,10.13
2024-01-05T15:54:25.363Z,9.20
2024-01-05T15:56:28.165Z,7.35
2024-01-05T15:58:29.816Z,8.02
2024-01-05T16:00:31.425Z,9.07
2024-01-05T16:02:34.669Z,5.80
2024-01-05T16:04:36.637Z,9.52
2024-01-05T16:06:38.271Z,6.72
2024-01-05T16:08:42.497Z,7.68
2024-01-05T16:10:44.059Z,5.55
2024-01-05T16:12:45.669Z,6.82
2024-01-05T16:14:48.330Z,9.52
2024-01-05T16:16:50.212Z,9.50
2024-01-05T16:18:52.429Z,5.80
2024-01-05T16:22:55.814Z,10.25
2024-01-05T16:24:58.067Z,10.80
2024-01-05T16:29:01.305Z,6.50
2024-01-05T16:31:03.078Z,7.57
2024-01-05T16:33:05.329Z,5.70
2024-01-05T16:35:07.529Z,8.63
2024-01-05T16:39:11.137Z,5.10
2024-01-05T16:41:14.498Z,5.47
2024-01-05T16:43:17.577Z,4.75
2024-01-05T16:45:19.323Z,6.47
2024-01-05T16:47:24.590Z,6.00
2024-01-05T16:49:26.286Z,5.32
2024-01-05T16:51:30.478Z,7.38
2024-01-05T16:53:33.826Z,5.82
2024-01-05T16:55:35.784Z,4.40
2024-01-05T16:57:37.692Z,5.60
2024-01-05T16:59:39.977Z,5.68
2024-01-05T17:03:43.375Z,5.20
2024-01-05T17:05:47.346Z,5.57
2024-01-05T17:07:49.024Z,4.70
2024-01-05T17:09:52.728Z,6.85
2024-01-05T17:11:57.957Z,6.50
2024-01-05T17:14:00.491Z,8.27
2024-01-05T17:16:02.171Z,7.57
2024-01-05T17:18:04.394Z,7.95
2024-01-05T17:20:17.098Z,5.53
2024-01-05T17:22:25.942Z,6.75
2024-01-05T17:24:27.607Z,5.70
2024-01-05T17:26:31.144Z,7.25
2024-01-05T17:28:32.933Z,8.80
2024-01-05T17:30:34.585Z,9.65
2024-01-05T17:32:36.408Z,8.02
2024-01-05T17:34:39.005Z,11.10
2024-01-05T17:36:42.427Z,8.77
2024-01-05T17:38:44.257Z,7.95
2024-01-05T17:40:45.897Z,8.38
2024-01-05T17:42:47.533Z,9.73
2024-01-05T17:44:51.281Z,9.30
2024-01-05T17:46:52.964Z,10.02
2024-01-05T17:48:54.659Z,5.88
2024-01-05T17:51:00.325Z,6.35
2024-01-05T17:53:02.151Z,6.97
2024-01-05T17:55:04.018Z,5.28
2024-01-05T17:57:07.412Z,8.23
2024-01-05T17:59:10.011Z,6.88
2024-01-05T18:01:13.544Z,7.00
2024-01-05T18:03:16.212Z,7.55
2024-01-05T18:05:17.898Z,6.40
2024-01-05T18:07:19.622Z,7.20
2024-01-05T18:09:22.026Z,5.90
2024-01-05T18:11:27.714Z,7.63
2024-01-05T18:13:29.562Z,5.72
2024-01-05T18:15:31.194Z,7.97
2024-01-05T18:17:32.974Z,9.73
2024-01-05T18:19:34.769Z,12.98
2024-01-05T18:21:44.110Z,16.63
2024-01-05T18:23:45.883Z,11.38
2024-01-05T18:25:47.466Z,9.45
2024-01-05T18:27:49.265Z,8.43
2024-01-05T18:29:51.075Z,14.82
2024-01-05T18:31:53.479Z,9.48
2024-01-05T18:33:56.268Z,7.35
2024-01-05T18:35:58.147Z,6.55
2024-01-05T18:37:59.793Z,9.70
2024-01-05T18:40:01.492Z,5.25
2024-01-05T18:42:03.268Z,8.93
2024-01-05T18:44:05.557Z,6.65
2024-01-05T18:48:10.372Z,6.55
2024-01-05T18:50:12.077Z,6.00
2024-01-05T18:52:15.748Z,5.70
2024-01-05T18:54:17.394Z,6.18
2024-01-05T18:56:19.230Z,6.72
2024-01-05T18:58:22.715Z,5.47
2024-01-05T19:00:24.456Z,6.30
2024-01-05T19:02:26.078Z,6.30
2024-01-05T19:04:27.740Z,6.88
2024-01-05T19:06:29.373Z,5.72
2024-01-05T19:08:31.210Z,5.88
2024-01-05T19:10:33.712Z,6.28
2024-01-05T19:12:36.987Z,6.75
2024-01-05T19:14:38.680Z,5.78
2024-01-05T19:16:43.890Z,6.68
2024-01-05T19:18:46.020Z,6.20
2024-01-05T19:20:47.721Z,6.72
2024-01-05T19:22:49.425Z,6.78
2024-01-05T19:24:51.700Z,6.25
2024-01-05T19:26:53.379Z,6.53
2024-01-05T19:28:55.060Z,7.78
2024-01-05T19:30:57.408Z,7.43
2024-01-05T19:32:59.674Z,6.13
2024-01-05T19:35:01.572Z,6.95
2024-01-05T19:37:03.396Z,5.88
2024-01-05T19:39:05.416Z,6.22
2024-01-05T19:41:10.379Z,7.32
2024-01-05T19:43:12.626Z,7.10
2024-01-05T19:47:19.322Z,6.57
2024-01-05T19:49:21.101Z,6.30
2024-01-05T19:51:23.447Z,6.00
2024-01-05T19:53:25.020Z,6.15
2024-01-05T19:55:26.742Z,5.75
2024-01-05T19:57:28.390Z,6.43
2024-01-05T19:59:30.143Z,7.57
2024-01-05T20:01:32.845Z,5.65
2024-01-05T20:03:35.550Z,7.00
2024-01-05T20:05:40.206Z,7.20
2024-01-05T20:07:41.855Z,6.13
2024-01-05T20:09:43.668Z,6.80
2024-01-05T20:11:46.520Z,6.60
2024-01-05T20:13:48.671Z,8.68
2024-01-05T20:15:50.655Z,6.43
2024-01-05T20:17:52.376Z,6.90
2024-01-05T20:19:54.206Z,6.88
2024-01-05T20:21:56.103Z,6.43
2024-01-05T20:23:58.003Z,6.80
2024-01-05T20:26:01.516Z,8.23
2024-01-05T20:28:03.308Z,6.63
2024-01-05T20:30:09.546Z,8.25
2024-01-05T20:32:11.360Z,7.28
2024-01-05T20:34:13.239Z,7.40
2024-01-05T20:36:17.131Z,7.20
2024-01-05T20:38:18.786Z,6.53
2024-01-05T20:40:20.398Z,5.95
2024-01-05T20:42:22.056Z,7.40
2024-01-05T20:44:25.162Z,7.68
2024-01-05T20:46:26.753Z,6.53
2024-01-05T20:48:28.451Z,7.18
2024-01-05T20:50:30.123Z,7.95
2024-01-05T20:52:35.812Z,8.13
2024-01-05T20:54:37.606Z,7.80
2024-01-05T20:56:39.172Z,7.03
2024-01-05T20:58:43.764Z,8.20
2024-01-05T21:00:49.101Z,7.18
2024-01-05T21:02:50.744Z,7.72
2024-01-05T21:04:52.608Z,7.07
2024-01-05T21:06:55.041Z,7.65
2024-01-05T21:08:58.388Z,7.38
2024-01-05T21:11:00.059Z,7.20
2024-01-05T21:13:01.645Z,7.22
2024-01-05T21:17:10.314Z,8.13
2024-01-05T21:19:12.286Z,7.97
2024-01-05T21:21:13.906Z,7.82
2024-01-05T21:23:15.514Z,9.57
2024-01-05T21:27:24.672Z,7.25
2024-01-05T21:29:26.238Z,7.43
2024-01-05T21:31:27.975Z,8.32
2024-01-05T21:33:29.694Z,7.53
2024-01-05T21:35:31.411Z,7.10
2024-01-05T21:39:40.420Z,7.70
2024-01-05T21:41:42.008Z,8.88
2024-01-05T21:43:46.222Z,8.38
2024-01-05T21:45:49.580Z,7.35
2024-01-05T21:54:06.540Z,7.80
2024-01-05T21:56:08.174Z,7.75
2024-01-05T21:58:12.898Z,8.20
2024-01-05T22:00:17.115Z,7.50
2024-01-05T22:02:18.735Z,8.40
2024-01-05T22:06:26.932Z,8.20
2024-01-05T22:08:28.619Z,8.10
2024-01-05T22:10:30.204Z,7.68
2024-01-05T22:12:31.828Z,8.00
2024-01-05T22:14:33.622Z,9.57
2024-01-05T22:16:35.420Z,7.45
2024-01-05T22:18:38.668Z,7.47
2024-01-05T22:20:43.080Z,7.82
2024-01-05T22:22:44.787Z,8.52
2024-01-05T22:24:46.456Z,8.88
2024-01-05T22:26:48.596Z,7.88
2024-01-05T22:28:50.265Z,8.60
2024-01-05T22:30:51.892Z,8.25
2024-01-05T22:32:53.793Z,9.07
2024-01-05T22:34:55.436Z,8.30
2024-01-05T22:37:01.305Z,7.65
2024-01-05T22:39:04.617Z,9.05
2024-01-05T22:41:07.282Z,8.48
2024-01-05T22:43:09.762Z,8.52
2024-01-05T22:45:11.559Z,8.80
2024-01-05T22:47:13.297Z,8.13
2024-01-05T22:49:14.993Z,8.07
2024-01-05T22:51:29.298Z,8.57
2024-01-05T22:53:31.113Z,9.63
2024-01-05T22:55:32.629Z,8.90
2024-01-05T22:57:34.383Z,8.98
2024-01-05T22:59:36.244Z,8.90
2024-01-05T23:01:37.933Z,8.43
2024-01-05T23:03:40.003Z,8.60
2024-01-05T23:05:43.605Z,8.65
2024-01-05T23:07:45.461Z,8.32
2024-01-05T23:09:47.260Z,10.05
2024-01-05T23:11:49.629Z,8.68
2024-01-05T23:13:51.220Z,8.48
2024-01-05T23:15:56.160Z,9.23
2024-01-05T23:17:59.634Z,9.50
2024-01-05T23:20:01.620Z,7.90
2024-01-05T23:22:03.439Z,8.25
2024-01-05T23:24:05.593Z,8.52
2024-01-05T23:26:17.089Z,9.43
2024-01-05T23:28:19.110Z,8.55
2024-01-05T23:30:20.800Z,9.60
2024-01-05T23:32:22.925Z,9.98
2024-01-05T23:34:25.058Z,7.88
2024-01-05T23:38:28.279Z,8.20
2024-01-05T23:40:29.872Z,7.88
2024-01-05T23:42:32.380Z,8.27
2024-01-05T23:44:34.031Z,7.80
2024-01-05T23:46:35.616Z,7.63
2024-01-05T23:48:37.472Z,9.27
2024-01-05T23:50:39.129Z,7.70
2024-01-05T23:52:43.672Z,8.38
2024-01-05T23:54:45.380Z,8.18
2024-01-05T23:56:47.038Z,9.35
2024-01-05T23:58:48.667Z,10.00
